Time,TemperatureF,DewpointF,PressureIn,WindDirection,WindDirectionDegrees,WindSpeedMPH,WindSpeedGustMPH,Humidity,HourlyPrecipIn,Conditions,Clouds,dailyrainin,SoftwareType,DateUTC
2013-06-12 00:01:00,61.5,60.4,29.65,WNW,294,0.0,0.0,96,0.00,,,0.00,meteohub,2013-06-12 04:01:00,
2013-06-12 00:02:00,61.5,60.4,29.65,WNW,294,0.0,0.0,96,0.00,,,0.00,meteohub,2013-06-12 04:02:00,
2013-06-12 00:03:00,61.5,60.4,29.65,WNW,294,0.0,0.0,96,0.00,,,0.00,meteohub,2013-06-12 04:03:00,
2013-06-12 00:08:00,61.7,60.3,29.65,WNW,294,0.0,0.0,95,0.00,,,0.00,meteohub,2013-06-12 04:08:00,
2013-06-12 00:14:00,61.9,60.4,29.65,WNW,294,0.0,0.0,95,0.00,,,0.00,meteohub,2013-06-12 04:14:00,
2013-06-12 00:19:00,62.1,60.3,29.65,WNW,294,0.0,0.0,94,0.00,,,0.00,meteohub,2013-06-12 04:19:00,
2013-06-12 00:24:00,62.2,60.8,29.65,WNW,294,0.0,0.0,95,0.00,,,0.00,meteohub,2013-06-12 04:24:00,
2013-06-12 00:29:00,62.1,60.6,29.65,WNW,294,0.0,0.0,95,0.00,,,0.00,meteohub,2013-06-12 04:29:00,
2013-06-12 00:34:00,62.1,60.6,29.65,WNW,294,0.0,0.0,95,0.00,,,0.00,meteohub,2013-06-12 04:34:00,
2013-06-12 00:39:00,62.1,60.6,29.65,WNW,294,0.0,0.0,95,0.00,,,0.00,meteohub,2013-06-12 04:39:00,
2013-06-12 00:44:00,61.9,60.8,29.65,WNW,294,0.0,0.0,96,0.00,,,0.00,meteohub,2013-06-12 04:44:00,
2013-06-12 00:49:00,61.9,60.4,29.65,WNW,294,0.0,0.0,95,0.00,,,0.00,meteohub,2013-06-12 04:49:00,
2013-06-12 00:54:00,61.5,60.1,29.65,WNW,294,0.0,0.0,95,0.00,,,0.00,meteohub,2013-06-12 04:54:00,
2013-06-12 01:00:00,61.5,59.7,29.65,WNW,294,0.0,0.0,94,0.00,,,0.00,meteohub,2013-06-12 05:00:00,
2013-06-12 01:05:00,61.5,59.7,29.65,WNW,294,0.0,0.0,94,0.00,,,0.00,meteohub,2013-06-12 05:05:00,
2013-06-12 01:10:00,61.3,59.5,29.65,WNW,294,0.0,0.0,94,0.00,,,0.00,meteohub,2013-06-12 05:10:00,
2013-06-12 01:15:00,61.3,59.5,29.65,WNW,294,0.0,0.0,94,0.00,,,0.00,meteohub,2013-06-12 05:15:00,
2013-06-12 01:20:00,61.3,59.5,29.65,WNW,294,0.0,0.0,94,0.00,,,0.00,meteohub,2013-06-12 05:20:00,
2013-06-12 01:25:00,61.2,59.2,29.65,WNW,294,0.0,0.0,93,0.00,,,0.00,meteohub,2013-06-12 05:25:00,
2013-06-12 01:30:00,61.2,59.2,29.65,WNW,294,0.0,0.0,93,0.00,,,0.00,meteohub,2013-06-12 05:30:00,
2013-06-12 01:35:00,61.2,58.5,29.65,WNW,294,0.0,0.0,91,0.00,,,0.00,meteohub,2013-06-12 05:35:00,
2013-06-12 01:40:00,61.2,58.5,29.65,WNW,294,0.0,0.0,91,0.00,,,0.00,meteohub,2013-06-12 05:40:00,
2013-06-12 01:45:00,61.2,59.2,29.65,WNW,294,0.0,0.0,93,0.00,,,0.00,meteohub,2013-06-12 05:45:00,
2013-06-12 01:50:00,60.8,58.1,29.65,WNW,294,0.0,0.0,91,0.00,,,0.00,meteohub,2013-06-12 05:50:00,
2013-06-12 01:56:00,60.8,58.5,29.65,WNW,294,0.0,0.0,92,0.00,,,0.00,meteohub,2013-06-12 05:56:00,
2013-06-12 02:01:00,60.6,58.6,29.65,WNW,294,0.0,0.0,93,0.00,,,0.00,meteohub,2013-06-12 06:01:00,
2013-06-12 02:06:00,60.6,58.6,29.65,WNW,294,0.0,0.0,93,0.00,,,0.00,meteohub,2013-06-12 06:06:00,
2013-06-12 02:11:00,60.4,58.5,29.65,WNW,294,0.0,0.0,93,0.00,,,0.00,meteohub,2013-06-12 06:11:00,
2013-06-12 02:16:00,60.3,58.3,29.65,WNW,294,0.0,0.0,93,0.00,,,0.00,meteohub,2013-06-12 06:16:00,
2013-06-12 02:21:00,60.3,58.3,29.65,WNW,294,0.0,0.0,93,0.00,,,0.00,meteohub,2013-06-12 06:21:00,
2013-06-12 02:26:00,60.1,58.1,29.65,WNW,294,0.0,0.0,93,0.00,,,0.00,meteohub,2013-06-12 06:26:00,
2013-06-12 02:31:00,59.7,57.7,29.65,WNW,294,0.0,0.0,93,0.00,,,0.00,meteohub,2013-06-12 06:31:00,
2013-06-12 02:36:00,59.5,57.6,29.65,WNW,294,0.0,0.0,93,0.00,,,0.00,meteohub,2013-06-12 06:36:00,
2013-06-12 02:42:00,59.4,57.6,29.65,WNW,294,0.0,0.0,94,0.00,,,0.00,meteohub,2013-06-12 06:42:00,
2013-06-12 02:47:00,59.2,57.4,29.65,WNW,294,0.0,0.0,94,0.00,,,0.00,meteohub,2013-06-12 06:47:00,
2013-06-12 02:52:00,58.8,57.0,29.65,WNW,294,0.0,0.0,94,0.00,,,0.00,meteohub,2013-06-12 06:52:00,
2013-06-12 02:57:00,58.6,56.8,29.65,WNW,294,0.0,0.0,94,0.00,,,0.00,meteohub,2013-06-12 06:57:00,
2013-06-12 03:02:00,58.6,57.2,29.64,WNW,294,0.0,0.0,95,0.00,,,0.00,meteohub,2013-06-12 07:02:00,
2013-06-12 03:07:00,58.5,57.0,29.64,WNW,294,0.0,0.0,95,0.00,,,0.00,meteohub,2013-06-12 07:07:00,
2013-06-12 03:12:00,58.5,57.0,29.64,WNW,294,0.0,0.0,95,0.00,,,0.00,meteohub,2013-06-12 07:12:00,
2013-06-12 03:17:00,58.8,57.0,29.64,WNW,294,0.0,0.0,94,0.00,,,0.00,meteohub,2013-06-12 07:17:00,
2013-06-12 03:22:00,59.2,57.2,29.64,WNW,294,0.0,0.0,93,0.00,,,0.00,meteohub,2013-06-12 07:22:00,
2013-06-12 03:27:00,59.5,57.2,29.64,WNW,294,0.0,0.0,92,0.00,,,0.00,meteohub,2013-06-12 07:27:00,
2013-06-12 03:32:00,59.7,57.4,29.64,WNW,294,0.0,0.0,92,0.00,,,0.00,meteohub,2013-06-12 07:32:00,
2013-06-12 03:38:00,59.9,57.6,29.64,WNW,294,0.0,0.0,92,0.00,,,0.00,meteohub,2013-06-12 07:38:00,
2013-06-12 03:43:00,60.1,57.7,29.64,WNW,294,0.0,0.0,92,0.00,,,0.00,meteohub,2013-06-12 07:43:00,
2013-06-12 03:48:00,60.3,57.9,29.64,WNW,294,0.0,0.0,92,0.00,,,0.00,meteohub,2013-06-12 07:48:00,
2013-06-12 03:53:00,60.3,57.6,29.64,WNW,294,0.0,0.0,91,0.00,,,0.00,meteohub,2013-06-12 07:53:00,
2013-06-12 03:58:00,60.4,57.6,29.64,WNW,294,0.0,0.0,90,0.00,,,0.00,meteohub,2013-06-12 07:58:00,
2013-06-12 04:03:00,60.4,57.7,29.64,WNW,294,0.0,0.0,91,0.00,,,0.00,meteohub,2013-06-12 08:03:00,
2013-06-12 04:08:00,60.4,57.7,29.65,WNW,294,0.0,0.0,91,0.00,,,0.00,meteohub,2013-06-12 08:08:00,
2013-06-12 04:13:00,60.4,57.7,29.65,WNW,294,0.0,0.0,91,0.00,,,0.00,meteohub,2013-06-12 08:13:00,
2013-06-12 04:18:00,60.4,57.6,29.65,WNW,294,0.0,0.0,90,0.00,,,0.00,meteohub,2013-06-12 08:18:00,
2013-06-12 04:23:00,60.4,57.6,29.65,WNW,294,0.0,0.0,90,0.00,,,0.00,meteohub,2013-06-12 08:23:00,
2013-06-12 04:28:00,60.6,57.7,29.65,WNW,294,0.0,0.0,90,0.00,,,0.00,meteohub,2013-06-12 08:28:00,
2013-06-12 04:34:00,60.6,57.7,29.65,WNW,294,0.0,0.0,90,0.00,,,0.00,meteohub,2013-06-12 08:34:00,
2013-06-12 04:39:00,60.8,57.9,29.66,WNW,294,0.0,0.0,90,0.00,,,0.00,meteohub,2013-06-12 08:39:00,
2013-06-12 04:44:00,60.8,57.6,29.66,WNW,294,0.0,0.0,89,0.00,,,0.00,meteohub,2013-06-12 08:44:00,
2013-06-12 04:49:00,61.0,57.7,29.66,WNW,294,0.0,0.0,89,0.00,,,0.00,meteohub,2013-06-12 08:49:00,
2013-06-12 04:54:00,61.0,57.7,29.66,WNW,294,0.0,0.0,89,0.00,,,0.00,meteohub,2013-06-12 08:54:00,
2013-06-12 04:59:00,61.0,57.7,29.67,WNW,294,0.0,0.0,89,0.00,,,0.00,meteohub,2013-06-12 08:59:00,
2013-06-12 05:04:00,61.0,57.7,29.67,WNW,294,0.0,0.0,89,0.00,,,0.00,meteohub,2013-06-12 09:04:00,
2013-06-12 05:10:00,60.8,57.6,29.67,WNW,294,0.0,0.0,89,0.00,,,0.00,meteohub,2013-06-12 09:10:00,
2013-06-12 05:15:00,60.6,57.4,29.67,WNW,294,0.0,0.0,89,0.00,,,0.00,meteohub,2013-06-12 09:15:00,
2013-06-12 05:20:00,60.8,57.6,29.68,WNW,294,0.0,0.0,89,0.00,,,0.00,meteohub,2013-06-12 09:20:00,
2013-06-12 05:25:00,61.0,57.4,29.68,WNW,294,0.0,0.0,88,0.00,,,0.00,meteohub,2013-06-12 09:25:00,
2013-06-12 05:30:00,61.0,57.0,29.68,WNW,294,0.0,0.0,87,0.00,,,0.00,meteohub,2013-06-12 09:30:00,
2013-06-12 05:35:00,61.2,57.2,29.68,WNW,294,0.0,0.0,87,0.00,,,0.00,meteohub,2013-06-12 09:35:00,
2013-06-12 05:40:00,61.3,57.4,29.69,WNW,294,0.0,0.0,87,0.00,,,0.00,meteohub,2013-06-12 09:40:00,
2013-06-12 05:46:00,61.3,57.4,29.69,WNW,294,0.0,0.0,87,0.00,,,0.00,meteohub,2013-06-12 09:46:00,
2013-06-12 05:51:00,61.5,56.7,29.69,WNW,294,0.0,0.0,84,0.00,,,0.00,meteohub,2013-06-12 09:51:00,
2013-06-12 05:56:00,61.9,57.0,29.69,WNW,294,0.0,0.0,84,0.00,,,0.00,meteohub,2013-06-12 09:56:00,
2013-06-12 06:01:00,61.9,56.3,29.69,WNW,294,0.0,0.0,82,0.00,,,0.00,meteohub,2013-06-12 10:01:00,
2013-06-12 06:06:00,61.9,56.3,29.69,WNW,294,0.0,0.0,82,0.00,,,0.00,meteohub,2013-06-12 10:06:00,
2013-06-12 06:11:00,61.9,55.9,29.69,WNW,294,0.0,0.0,81,0.00,,,0.00,meteohub,2013-06-12 10:11:00,
2013-06-12 06:16:00,61.9,55.6,29.69,WNW,294,0.0,0.0,80,0.00,,,0.00,meteohub,2013-06-12 10:16:00,
2013-06-12 06:22:00,61.9,55.6,29.69,WNW,294,0.0,0.0,80,0.00,,,0.00,meteohub,2013-06-12 10:22:00,
2013-06-12 06:27:00,62.1,55.4,29.69,WNW,294,0.0,0.0,79,0.00,,,0.00,meteohub,2013-06-12 10:27:00,
2013-06-12 06:32:00,62.1,55.8,29.69,WNW,294,0.0,0.0,80,0.00,,,0.00,meteohub,2013-06-12 10:32:00,
2013-06-12 06:37:00,62.2,54.9,29.69,WNW,294,0.0,0.0,77,0.00,,,0.00,meteohub,2013-06-12 10:37:00,
2013-06-12 06:42:00,62.4,54.7,29.69,WNW,294,0.0,0.0,76,0.02,,,0.02,meteohub,2013-06-12 10:42:00,
2013-06-12 06:47:00,62.8,55.0,29.69,WNW,294,0.0,0.0,76,0.02,,,0.02,meteohub,2013-06-12 10:47:00,
2013-06-12 06:52:00,63.0,54.5,29.69,WNW,294,0.0,0.0,74,0.02,,,0.02,meteohub,2013-06-12 10:52:00,
2013-06-12 06:57:00,63.1,54.7,29.69,WNW,294,0.0,0.0,74,0.02,,,0.02,meteohub,2013-06-12 10:57:00,
2013-06-12 07:02:00,63.1,55.0,29.69,WNW,294,0.0,0.0,75,0.02,,,0.02,meteohub,2013-06-12 11:02:00,
2013-06-12 07:07:00,63.3,55.2,29.69,WNW,294,0.0,0.0,75,0.38,,,0.38,meteohub,2013-06-12 11:07:00,
2013-06-12 07:12:00,63.5,55.0,29.68,WNW,294,0.0,0.0,74,0.80,,,0.80,meteohub,2013-06-12 11:12:00,
2013-06-12 07:17:00,63.5,55.0,29.69,WNW,294,0.0,0.0,74,2.34,,,2.34,meteohub,2013-06-12 11:17:00,
2013-06-12 07:22:00,63.7,55.6,29.69,WNW,294,0.0,0.0,75,3.66,,,3.66,meteohub,2013-06-12 11:22:00,
2013-06-12 07:27:00,63.7,54.5,29.69,WNW,294,0.0,0.0,72,4.38,,,4.38,meteohub,2013-06-12 11:27:00,
2013-06-12 07:32:00,63.9,55.8,29.69,WNW,294,0.0,0.0,75,5.82,,,5.82,meteohub,2013-06-12 11:32:00,
2013-06-12 07:37:00,64.0,55.6,29.70,WNW,294,0.0,0.0,74,7.24,,,7.26,meteohub,2013-06-12 11:37:00,
2013-06-12 07:42:00,64.2,55.8,29.70,WNW,294,0.0,0.0,74,8.08,,,8.10,meteohub,2013-06-12 11:42:00,
2013-06-12 07:47:00,64.6,56.1,29.70,WNW,294,0.0,0.0,74,9.51,,,9.53,meteohub,2013-06-12 11:47:00,
2013-06-12 07:52:00,64.6,56.1,29.70,WNW,294,0.0,0.0,74,10.17,,,10.19,meteohub,2013-06-12 11:52:00,
2013-06-12 07:57:00,64.6,55.0,29.71,WNW,294,0.0,0.0,71,11.59,,,11.61,meteohub,2013-06-12 11:57:00,
2013-06-12 08:02:00,64.6,55.0,29.71,WNW,294,0.0,0.0,71,12.67,,,12.69,meteohub,2013-06-12 12:02:00,
2013-06-12 08:07:00,64.4,55.2,29.71,WNW,294,0.0,0.0,72,12.98,,,13.41,meteohub,2013-06-12 12:07:00,
2013-06-12 08:12:00,64.4,55.2,29.71,WNW,294,0.0,0.0,72,13.23,,,14.85,meteohub,2013-06-12 12:12:00,
2013-06-12 08:17:00,64.2,55.4,29.71,WNW,294,0.0,0.0,73,12.87,,,15.57,meteohub,2013-06-12 12:17:00,
2013-06-12 08:22:00,64.2,54.3,29.72,WNW,294,0.0,0.0,70,13.23,,,17.13,meteohub,2013-06-12 12:22:00,
2013-06-12 08:27:00,64.2,54.3,29.71,WNW,294,0.0,0.0,70,13.35,,,18.45,meteohub,2013-06-12 12:27:00,
2013-06-12 08:32:00,63.9,54.3,29.72,WNW,294,0.0,0.0,71,12.90,,,19.20,meteohub,2013-06-12 12:32:00,
2013-06-12 08:37:00,64.0,54.5,29.72,WNW,294,0.0,0.0,71,12.28,,,19.66,meteohub,2013-06-12 12:37:00,
2013-06-12 08:42:00,64.4,54.3,29.72,WNW,294,0.0,0.0,70,12.53,,,21.10,meteohub,2013-06-12 12:42:00,
2013-06-12 08:47:00,64.6,55.0,29.72,WNW,294,0.0,0.0,71,12.05,,,21.82,meteohub,2013-06-12 12:47:00,
2013-06-12 08:52:00,64.9,55.8,29.72,WNW,294,0.0,0.0,72,12.47,,,23.38,meteohub,2013-06-12 12:52:00,
2013-06-12 08:57:00,65.3,54.5,29.71,WNW,294,0.0,0.0,68,11.97,,,23.98,meteohub,2013-06-12 12:57:00,
2013-06-12 09:02:00,65.5,55.0,29.71,WNW,294,0.0,0.0,69,12.50,,,25.43,meteohub,2013-06-12 13:02:00,
2013-06-12 09:07:00,65.1,54.3,29.72,WNW,294,0.0,0.0,68,11.99,,,26.00,meteohub,2013-06-12 13:07:00,
2013-06-12 09:12:00,64.8,54.7,29.72,WNW,294,0.0,0.0,70,11.49,,,26.70,meteohub,2013-06-12 13:12:00,
2013-06-12 09:17:00,64.9,54.1,29.71,WNW,294,0.0,0.0,68,11.69,,,28.10,meteohub,2013-06-12 13:17:00,
2013-06-12 09:22:00,65.3,55.2,29.71,WNW,294,0.0,0.0,70,11.81,,,29.42,meteohub,2013-06-12 13:22:00,
2013-06-12 09:27:00,66.2,56.1,29.71,WNW,294,0.0,0.0,70,10.79,,,29.48,meteohub,2013-06-12 13:27:00,
2013-06-12 09:32:00,66.6,56.1,29.71,WNW,294,0.0,0.0,69,10.27,,,29.48,meteohub,2013-06-12 13:32:00,
2013-06-12 09:37:00,66.9,57.6,29.71,WNW,294,0.0,0.0,72,9.34,,,29.48,meteohub,2013-06-12 13:37:00,
2013-06-12 09:42:00,66.7,55.8,29.71,WNW,294,0.0,0.0,68,8.14,,,29.48,meteohub,2013-06-12 13:42:00,
2013-06-12 09:47:00,67.3,56.8,29.71,WNW,294,0.0,0.0,69,7.09,,,29.51,meteohub,2013-06-12 13:47:00,
2013-06-12 09:52:00,67.1,56.7,29.72,WNW,294,0.0,0.0,69,5.89,,,29.51,meteohub,2013-06-12 13:52:00,
2013-06-12 09:57:00,66.9,55.6,29.72,WNW,294,0.0,0.0,67,4.82,,,29.68,meteohub,2013-06-12 13:57:00,
2013-06-12 10:02:00,66.7,55.4,29.72,WNW,294,0.0,0.0,67,3.90,,,29.68,meteohub,2013-06-12 14:02:00,
2013-06-12 10:07:00,66.7,56.3,29.72,WNW,294,0.0,0.0,69,3.44,,,29.68,meteohub,2013-06-12 14:07:00,
2013-06-12 10:12:00,66.2,55.4,29.72,WNW,294,0.0,0.0,68,2.47,,,29.73,meteohub,2013-06-12 14:12:00,
2013-06-12 10:17:00,66.0,55.6,29.72,WNW,294,0.0,0.0,69,1.27,,,29.73,meteohub,2013-06-12 14:17:00,
2013-06-12 10:22:00,66.9,56.5,29.72,WNW,294,0.0,0.0,69,0.27,,,29.75,meteohub,2013-06-12 14:22:00,
2013-06-12 10:27:00,67.3,56.8,29.73,WNW,294,0.0,0.0,69,0.27,,,29.75,meteohub,2013-06-12 14:27:00,
2013-06-12 10:32:00,66.9,54.9,29.73,WNW,294,0.0,0.0,65,0.27,,,29.75,meteohub,2013-06-12 14:32:00,
2013-06-12 10:37:00,66.6,54.9,29.73,WNW,294,0.0,0.0,66,0.27,,,29.75,meteohub,2013-06-12 14:37:00,
2013-06-12 10:42:00,66.6,55.6,29.73,WNW,294,0.0,0.0,68,0.27,,,29.75,meteohub,2013-06-12 14:42:00,
2013-06-12 10:47:00,66.7,55.8,29.73,WNW,294,0.0,0.0,68,0.24,,,29.75,meteohub,2013-06-12 14:47:00,
2013-06-12 10:52:00,66.6,55.2,29.73,WNW,294,0.0,0.0,67,0.24,,,29.75,meteohub,2013-06-12 14:52:00,
2013-06-12 10:57:00,66.7,55.8,29.73,WNW,294,0.0,0.0,68,0.07,,,29.75,meteohub,2013-06-12 14:57:00,
2013-06-12 11:02:00,66.9,55.2,29.73,WNW,294,0.0,0.0,66,0.07,,,29.75,meteohub,2013-06-12 15:02:00,
2013-06-12 11:07:00,66.7,55.0,29.73,WNW,294,0.0,0.0,66,0.07,,,29.75,meteohub,2013-06-12 15:07:00,
2013-06-12 11:12:00,66.9,56.5,29.73,WNW,294,0.0,0.0,69,0.02,,,29.75,meteohub,2013-06-12 15:12:00,
2013-06-12 11:17:00,67.6,57.0,29.73,WNW,294,0.0,0.0,69,0.02,,,29.75,meteohub,2013-06-12 15:17:00,
2013-06-12 11:22:00,68.4,55.2,29.73,WNW,294,0.0,0.0,63,0.00,,,29.75,meteohub,2013-06-12 15:22:00,
2013-06-12 11:27:00,67.8,54.7,29.74,WNW,294,0.0,0.0,63,0.00,,,29.75,meteohub,2013-06-12 15:27:00,
2013-06-12 11:32:00,67.8,55.6,29.74,WNW,294,0.0,0.0,65,0.00,,,29.75,meteohub,2013-06-12 15:32:00,
2013-06-12 11:37:00,67.6,55.4,29.73,WNW,294,0.0,0.0,65,0.00,,,29.75,meteohub,2013-06-12 15:37:00,
2013-06-12 11:42:00,67.6,57.0,29.74,WNW,294,0.0,0.0,69,0.00,,,29.75,meteohub,2013-06-12 15:42:00,
2013-06-12 11:47:00,68.4,56.1,29.74,WNW,294,0.0,0.0,65,0.00,,,29.75,meteohub,2013-06-12 15:47:00,
2013-06-12 11:52:00,69.1,56.5,29.74,WNW,294,0.0,0.0,64,0.00,,,29.75,meteohub,2013-06-12 15:52:00,
2013-06-12 11:57:00,69.1,55.0,29.74,WNW,294,0.0,0.0,61,0.00,,,29.75,meteohub,2013-06-12 15:57:00,
2013-06-12 12:02:00,68.5,56.3,29.74,WNW,294,0.0,0.0,65,0.00,,,29.75,meteohub,2013-06-12 16:02:00,
2013-06-12 12:07:00,68.5,56.3,29.74,WNW,294,0.0,0.0,65,0.00,,,29.75,meteohub,2013-06-12 16:07:00,
2013-06-12 12:12:00,68.7,56.5,29.75,WNW,294,0.0,0.0,65,0.00,,,29.75,meteohub,2013-06-12 16:12:00,
2013-06-12 12:17:00,68.5,55.4,29.75,WNW,294,0.0,0.0,63,0.00,,,29.75,meteohub,2013-06-12 16:17:00,
2013-06-12 12:22:00,68.5,55.4,29.75,WNW,294,0.0,0.0,63,0.00,,,29.75,meteohub,2013-06-12 16:22:00,
2013-06-12 12:27:00,68.4,56.1,29.75,WNW,294,0.0,0.0,65,0.00,,,29.75,meteohub,2013-06-12 16:27:00,
2013-06-12 12:32:00,68.5,57.6,29.74,WNW,294,0.0,0.0,68,0.00,,,29.75,meteohub,2013-06-12 16:32:00,
2013-06-12 12:37:00,69.3,56.5,29.74,WNW,294,0.0,0.0,64,0.00,,,29.75,meteohub,2013-06-12 16:37:00,
2013-06-12 12:42:00,69.6,56.8,29.74,WNW,294,0.0,0.0,64,0.00,,,29.75,meteohub,2013-06-12 16:42:00,
2013-06-12 12:47:00,69.8,56.1,29.75,WNW,294,0.0,0.0,62,0.00,,,29.75,meteohub,2013-06-12 16:47:00,
2013-06-12 12:52:00,70.5,56.8,29.74,WNW,294,0.0,0.0,62,0.00,,,29.75,meteohub,2013-06-12 16:52:00,
2013-06-12 12:57:00,70.7,56.7,29.74,WNW,294,0.0,0.0,61,0.00,,,29.75,meteohub,2013-06-12 16:57:00,
2013-06-12 13:02:00,70.2,56.5,29.75,WNW,294,0.0,0.0,62,0.00,,,29.75,meteohub,2013-06-12 17:02:00,
2013-06-12 13:07:00,70.0,57.2,29.75,WNW,294,0.0,0.0,64,0.00,,,29.75,meteohub,2013-06-12 17:07:00,
2013-06-12 13:12:00,70.3,57.2,29.75,WNW,294,0.0,0.0,63,0.00,,,29.75,meteohub,2013-06-12 17:12:00,
2013-06-12 13:17:00,70.0,57.2,29.75,WNW,294,0.0,0.0,64,0.00,,,29.75,meteohub,2013-06-12 17:17:00,
2013-06-12 13:22:00,70.3,56.3,29.75,WNW,294,0.0,0.0,61,0.00,,,29.75,meteohub,2013-06-12 17:22:00,
2013-06-12 13:27:00,69.8,55.8,29.75,WNW,294,0.0,0.0,61,0.00,,,29.75,meteohub,2013-06-12 17:27:00,
2013-06-12 13:32:00,69.6,55.9,29.75,WNW,294,0.0,0.0,62,0.00,,,29.75,meteohub,2013-06-12 17:32:00,
2013-06-12 13:37:00,69.6,56.8,29.75,WNW,294,0.0,0.0,64,0.00,,,29.75,meteohub,2013-06-12 17:37:00,
2013-06-12 13:42:00,69.1,55.6,29.75,WNW,294,0.0,0.0,62,0.00,,,29.75,meteohub,2013-06-12 17:42:00,
2013-06-12 13:47:00,68.5,56.7,29.75,WNW,294,0.0,0.0,66,0.00,,,29.75,meteohub,2013-06-12 17:47:00,
2013-06-12 13:52:00,69.1,56.5,29.75,WNW,294,0.0,0.0,64,0.00,,,29.75,meteohub,2013-06-12 17:52:00,
2013-06-12 13:57:00,70.2,57.0,29.75,WNW,294,0.0,0.0,63,0.00,,,29.75,meteohub,2013-06-12 17:57:00,
2013-06-12 14:02:00,70.5,56.8,29.75,WNW,294,0.0,0.0,62,0.00,,,29.75,meteohub,2013-06-12 18:02:00,
2013-06-12 14:07:00,70.9,56.8,29.74,WNW,294,0.0,0.0,61,0.00,,,29.75,meteohub,2013-06-12 18:07:00,
2013-06-12 14:12:00,71.2,57.0,29.75,WNW,294,0.0,0.0,61,0.00,,,29.75,meteohub,2013-06-12 18:12:00,
2013-06-12 14:17:00,71.2,56.7,29.75,WNW,294,0.0,0.0,60,0.00,,,29.75,meteohub,2013-06-12 18:17:00,
2013-06-12 14:22:00,71.8,58.5,29.75,WNW,294,0.0,0.0,63,0.00,,,29.75,meteohub,2013-06-12 18:22:00,
2013-06-12 14:27:00,72.3,56.7,29.76,WNW,294,0.0,0.0,58,0.00,,,29.75,meteohub,2013-06-12 18:27:00,
2013-06-12 14:32:00,71.8,54.7,29.75,WNW,294,0.0,0.0,55,0.00,,,29.75,meteohub,2013-06-12 18:32:00,
2013-06-12 14:37:00,72.1,57.0,29.75,WNW,294,0.0,0.0,59,0.00,,,29.75,meteohub,2013-06-12 18:37:00,
2013-06-12 14:42:00,72.7,57.0,29.75,WNW,294,0.0,0.0,58,0.00,,,29.75,meteohub,2013-06-12 18:42:00,
2013-06-12 14:47:00,72.7,57.0,29.75,WNW,294,0.0,0.0,58,0.00,,,29.75,meteohub,2013-06-12 18:47:00,
2013-06-12 14:52:00,72.7,58.5,29.75,WNW,294,0.0,0.0,61,0.00,,,29.75,meteohub,2013-06-12 18:52:00,
2013-06-12 14:57:00,72.7,58.8,29.75,WNW,294,0.0,0.0,62,0.00,,,29.75,meteohub,2013-06-12 18:57:00,
2013-06-12 15:02:00,72.0,55.4,29.75,WNW,294,0.0,0.0,56,0.00,,,29.75,meteohub,2013-06-12 19:02:00,
2013-06-12 15:07:00,71.4,54.9,29.76,WNW,294,0.0,0.0,56,0.00,,,29.75,meteohub,2013-06-12 19:07:00,
2013-06-12 15:12:00,71.4,56.3,29.75,WNW,294,0.0,0.0,59,0.00,,,29.75,meteohub,2013-06-12 19:12:00,
2013-06-12 15:17:00,71.4,56.3,29.76,WNW,294,0.0,0.0,59,0.00,,,29.75,meteohub,2013-06-12 19:17:00,
2013-06-12 15:22:00,71.8,55.2,29.76,WNW,294,0.0,0.0,56,0.00,,,29.75,meteohub,2013-06-12 19:22:00,
2013-06-12 15:27:00,72.0,54.3,29.76,WNW,294,0.0,0.0,54,0.00,,,29.75,meteohub,2013-06-12 19:27:00,
2013-06-12 15:33:00,72.3,56.3,29.76,WNW,294,0.0,0.0,57,0.00,,,29.75,meteohub,2013-06-12 19:33:00,
2013-06-12 15:38:00,72.7,56.5,29.76,WNW,294,0.0,0.0,57,0.00,,,29.75,meteohub,2013-06-12 19:38:00,
2013-06-12 15:43:00,72.7,55.6,29.76,WNW,294,0.0,0.0,55,0.00,,,29.75,meteohub,2013-06-12 19:43:00,
2013-06-12 15:48:00,71.6,54.1,29.76,WNW,294,0.0,0.0,54,0.00,,,29.75,meteohub,2013-06-12 19:48:00,
2013-06-12 15:53:00,72.0,55.9,29.75,WNW,294,0.0,0.0,57,0.00,,,29.75,meteohub,2013-06-12 19:53:00,
2013-06-12 15:58:00,72.7,55.6,29.76,WNW,294,0.0,0.0,55,0.00,,,29.75,meteohub,2013-06-12 19:58:00,
2013-06-12 16:03:00,72.9,57.2,29.75,WNW,294,0.0,0.0,58,0.00,,,29.75,meteohub,2013-06-12 20:03:00,
2013-06-12 16:08:00,73.0,56.8,29.75,WNW,294,0.0,0.0,57,0.00,,,29.75,meteohub,2013-06-12 20:08:00,
2013-06-12 16:13:00,73.6,56.5,29.75,WNW,294,0.0,0.0,55,0.00,,,29.75,meteohub,2013-06-12 20:13:00,
2013-06-12 16:19:00,74.1,56.8,29.75,WNW,294,0.0,0.0,55,0.00,,,29.75,meteohub,2013-06-12 20:19:00,
2013-06-12 16:24:00,74.1,55.9,29.75,WNW,294,0.0,0.0,53,0.00,,,29.75,meteohub,2013-06-12 20:24:00,
2013-06-12 16:29:00,73.2,54.5,29.75,WNW,294,0.0,0.0,52,0.00,,,29.75,meteohub,2013-06-12 20:29:00,
2013-06-12 16:34:00,73.2,55.6,29.76,WNW,294,0.0,0.0,54,0.00,,,29.75,meteohub,2013-06-12 20:34:00,
2013-06-12 16:39:00,73.0,54.3,29.76,WNW,294,0.0,0.0,52,0.00,,,29.75,meteohub,2013-06-12 20:39:00,
2013-06-12 16:44:00,72.3,53.8,29.76,WNW,294,0.0,0.0,52,0.00,,,29.75,meteohub,2013-06-12 20:44:00,
2013-06-12 16:50:00,72.7,54.0,29.76,WNW,294,0.0,0.0,52,0.00,,,29.75,meteohub,2013-06-12 20:50:00,
2013-06-12 16:55:00,72.3,55.2,29.76,WNW,294,0.0,0.0,55,0.00,,,29.75,meteohub,2013-06-12 20:55:00,
2013-06-12 17:00:00,72.5,54.9,29.76,WNW,294,0.0,0.0,54,0.00,,,29.75,meteohub,2013-06-12 21:00:00,
2013-06-12 17:05:00,72.9,55.2,29.76,WNW,294,0.0,0.0,54,0.00,,,29.75,meteohub,2013-06-12 21:05:00,
2013-06-12 17:10:00,72.5,54.9,29.77,WNW,294,0.0,0.0,54,0.00,,,29.75,meteohub,2013-06-12 21:10:00,
2013-06-12 17:15:00,72.0,54.3,29.77,WNW,294,0.0,0.0,54,0.00,,,29.75,meteohub,2013-06-12 21:15:00,
2013-06-12 17:20:00,71.6,54.1,29.77,WNW,294,0.0,0.0,54,0.00,,,29.75,meteohub,2013-06-12 21:20:00,
2013-06-12 17:25:00,71.2,53.8,29.78,WNW,294,0.0,0.0,54,0.00,,,29.75,meteohub,2013-06-12 21:25:00,
2013-06-12 17:31:00,71.2,54.3,29.78,WNW,294,0.0,0.0,55,0.00,,,29.75,meteohub,2013-06-12 21:31:00,
2013-06-12 17:36:00,71.1,54.1,29.78,WNW,294,0.0,0.0,55,0.00,,,29.75,meteohub,2013-06-12 21:36:00,
2013-06-12 17:41:00,71.2,54.7,29.78,WNW,294,0.0,0.0,56,0.00,,,29.75,meteohub,2013-06-12 21:41:00,
2013-06-12 17:46:00,71.8,54.7,29.78,WNW,294,0.0,0.0,55,0.00,,,29.75,meteohub,2013-06-12 21:46:00,
2013-06-12 17:51:00,72.3,54.1,29.78,WNW,294,0.0,0.0,53,0.00,,,29.75,meteohub,2013-06-12 21:51:00,
2013-06-12 17:56:00,72.9,54.1,29.78,WNW,294,0.0,0.0,52,0.00,,,29.75,meteohub,2013-06-12 21:56:00,
2013-06-12 18:01:00,73.0,54.3,29.78,WNW,294,0.0,0.0,52,0.00,,,29.75,meteohub,2013-06-12 22:01:00,
2013-06-12 18:06:00,73.0,54.9,29.78,WNW,294,0.0,0.0,53,0.00,,,29.75,meteohub,2013-06-12 22:06:00,
2013-06-12 18:12:00,72.7,53.4,29.78,WNW,294,0.0,0.0,51,0.00,,,29.75,meteohub,2013-06-12 22:12:00,
2013-06-12 18:17:00,72.3,54.7,29.78,WNW,294,0.0,0.0,54,0.00,,,29.75,meteohub,2013-06-12 22:17:00,
2013-06-12 18:22:00,72.3,54.1,29.78,WNW,294,0.0,0.0,53,0.00,,,29.75,meteohub,2013-06-12 22:22:00,
2013-06-12 18:27:00,72.1,54.1,29.79,WNW,294,0.0,0.0,53,0.00,,,29.75,meteohub,2013-06-12 22:27:00,
2013-06-12 18:32:00,72.0,54.3,29.79,WNW,294,0.0,0.0,54,0.00,,,29.75,meteohub,2013-06-12 22:32:00,
2013-06-12 18:37:00,72.1,54.1,29.79,WNW,294,0.0,0.0,53,0.00,,,29.75,meteohub,2013-06-12 22:37:00,
2013-06-12 18:42:00,72.1,54.5,29.79,WNW,294,0.0,0.0,54,0.00,,,29.75,meteohub,2013-06-12 22:42:00,
2013-06-12 18:47:00,71.8,54.7,29.79,WNW,294,0.0,0.0,55,0.00,,,29.75,meteohub,2013-06-12 22:47:00,
2013-06-12 18:52:00,71.2,53.8,29.79,WNW,294,0.0,0.0,54,0.00,,,29.75,meteohub,2013-06-12 22:52:00,
2013-06-12 18:57:00,70.9,54.3,29.79,WNW,294,0.0,0.0,56,0.00,,,29.75,meteohub,2013-06-12 22:57:00,
2013-06-12 19:02:00,70.5,54.1,29.79,WNW,294,0.0,0.0,56,0.00,,,29.75,meteohub,2013-06-12 23:02:00,
2013-06-12 19:07:00,70.3,54.3,29.79,WNW,294,0.0,0.0,57,0.00,,,29.75,meteohub,2013-06-12 23:07:00,
2013-06-12 19:12:00,70.0,54.0,29.79,WNW,294,0.0,0.0,57,0.00,,,29.75,meteohub,2013-06-12 23:12:00,
2013-06-12 19:17:00,70.0,53.6,29.79,WNW,294,0.0,0.0,56,0.00,,,29.75,meteohub,2013-06-12 23:17:00,
2013-06-12 19:22:00,69.8,54.0,29.79,WNW,294,0.0,0.0,57,0.00,,,29.75,meteohub,2013-06-12 23:22:00,
2013-06-12 19:27:00,69.4,54.0,29.80,WNW,294,0.0,0.0,58,0.00,,,29.75,meteohub,2013-06-12 23:27:00,
2013-06-12 19:32:00,69.3,53.8,29.80,WNW,294,0.0,0.0,58,0.00,,,29.75,meteohub,2013-06-12 23:32:00,
2013-06-12 19:37:00,69.1,53.6,29.81,WNW,294,0.0,0.0,58,0.00,,,29.75,meteohub,2013-06-12 23:37:00,
2013-06-12 19:42:00,68.9,54.0,29.81,WNW,294,0.0,0.0,59,0.00,,,29.75,meteohub,2013-06-12 23:42:00,
2013-06-12 19:47:00,68.5,53.6,29.81,WNW,294,0.0,0.0,59,0.00,,,29.75,meteohub,2013-06-12 23:47:00,
2013-06-12 19:52:00,68.4,54.0,29.81,WNW,294,0.0,0.0,60,0.00,,,29.75,meteohub,2013-06-12 23:52:00,
2013-06-12 19:57:00,67.8,54.0,29.82,WNW,294,0.0,0.0,61,0.00,,,29.75,meteohub,2013-06-12 23:57:00,
2013-06-12 20:02:00,67.6,53.2,29.82,WNW,294,0.0,0.0,60,0.00,,,29.75,meteohub,2013-06-13 00:02:00,
2013-06-12 20:07:00,67.5,54.0,29.82,WNW,294,0.0,0.0,62,0.00,,,0.00,meteohub,2013-06-13 00:07:00,
2013-06-12 20:12:00,67.3,53.4,29.82,WNW,294,0.0,0.0,61,0.00,,,0.00,meteohub,2013-06-13 00:12:00,
2013-06-12 20:17:00,66.9,53.4,29.82,WNW,294,0.0,0.0,62,0.00,,,0.00,meteohub,2013-06-13 00:17:00,
2013-06-12 20:22:00,66.7,53.8,29.82,WNW,294,0.0,0.0,63,0.00,,,0.00,meteohub,2013-06-13 00:22:00,
2013-06-12 20:27:00,66.4,53.4,29.83,WNW,294,0.0,0.0,63,0.00,,,0.00,meteohub,2013-06-13 00:27:00,
2013-06-12 20:32:00,66.0,53.4,29.83,WNW,294,0.0,0.0,64,0.00,,,0.00,meteohub,2013-06-13 00:32:00,
2013-06-12 20:37:00,65.7,53.6,29.83,WNW,294,0.0,0.0,65,0.00,,,0.00,meteohub,2013-06-13 00:37:00,
2013-06-12 20:42:00,65.3,53.6,29.83,WNW,294,0.0,0.0,66,0.00,,,0.00,meteohub,2013-06-13 00:42:00,
2013-06-12 20:47:00,64.9,53.8,29.83,WNW,294,0.0,0.0,67,0.00,,,0.00,meteohub,2013-06-13 00:47:00,
2013-06-12 20:52:00,64.4,53.2,29.83,WNW,294,0.0,0.0,67,0.00,,,0.00,meteohub,2013-06-13 00:52:00,
2013-06-12 20:57:00,64.0,53.2,29.83,WNW,294,0.0,0.0,68,0.00,,,0.00,meteohub,2013-06-13 00:57:00,
2013-06-12 21:02:00,63.9,53.4,29.83,WNW,294,0.0,0.0,69,0.00,,,0.00,meteohub,2013-06-13 01:02:00,
2013-06-12 21:07:00,63.7,53.8,29.83,WNW,294,0.0,0.0,70,0.00,,,0.00,meteohub,2013-06-13 01:07:00,
2013-06-12 21:12:00,63.3,53.4,29.83,WNW,294,0.0,0.0,70,0.00,,,0.00,meteohub,2013-06-13 01:12:00,
2013-06-12 21:17:00,63.1,54.0,29.83,WNW,294,0.0,0.0,72,0.00,,,0.00,meteohub,2013-06-13 01:17:00,
2013-06-12 21:22:00,62.8,53.2,29.84,WNW,294,0.0,0.0,71,0.00,,,0.00,meteohub,2013-06-13 01:22:00,
2013-06-12 21:27:00,62.8,53.2,29.84,WNW,294,0.0,0.0,71,0.00,,,0.00,meteohub,2013-06-13 01:27:00,
2013-06-12 21:32:00,63.0,53.1,29.84,WNW,294,0.0,0.0,70,0.00,,,0.00,meteohub,2013-06-13 01:32:00,
2013-06-12 21:37:00,63.0,53.4,29.84,WNW,294,0.0,0.0,71,0.00,,,0.00,meteohub,2013-06-13 01:37:00,
2013-06-12 21:42:00,62.8,53.2,29.84,WNW,294,0.0,0.0,71,0.00,,,0.00,meteohub,2013-06-13 01:42:00,
2013-06-12 21:47:00,62.6,53.1,29.84,WNW,294,0.0,0.0,71,0.00,,,0.00,meteohub,2013-06-13 01:47:00,
2013-06-12 21:52:00,62.4,53.2,29.84,WNW,294,0.0,0.0,72,0.00,,,0.00,meteohub,2013-06-13 01:52:00,
2013-06-12 21:57:00,62.2,53.8,29.84,WNW,294,0.0,0.0,74,0.00,,,0.00,meteohub,2013-06-13 01:57:00,
2013-06-12 22:02:00,62.1,54.0,29.84,WNW,294,0.0,0.0,75,0.00,,,0.00,meteohub,2013-06-13 02:02:00,
2013-06-12 22:07:00,61.7,53.8,29.84,WNW,294,0.0,0.0,75,0.00,,,0.00,meteohub,2013-06-13 02:07:00,
2013-06-12 22:12:00,61.3,54.1,29.84,WNW,294,0.0,0.0,77,0.00,,,0.00,meteohub,2013-06-13 02:12:00,
2013-06-12 22:17:00,61.0,54.5,29.84,WNW,294,0.0,0.0,79,0.00,,,0.00,meteohub,2013-06-13 02:17:00,
2013-06-12 22:22:00,60.6,54.5,29.84,WNW,294,0.0,0.0,80,0.00,,,0.00,meteohub,2013-06-13 02:22:00,
2013-06-12 22:27:00,60.3,54.3,29.84,WNW,294,0.0,0.0,81,0.00,,,0.00,meteohub,2013-06-13 02:27:00,
2013-06-12 22:32:00,59.5,54.0,29.83,WNW,294,0.0,0.0,82,0.00,,,0.00,meteohub,2013-06-13 02:32:00,
2013-06-12 22:37:00,59.2,54.3,29.84,WNW,294,0.0,0.0,84,0.00,,,0.00,meteohub,2013-06-13 02:37:00,
2013-06-12 22:42:00,58.6,53.8,29.84,WNW,294,0.0,0.0,84,0.00,,,0.00,meteohub,2013-06-13 02:42:00,
2013-06-12 22:47:00,58.3,53.8,29.84,WNW,294,0.0,0.0,85,0.00,,,0.00,meteohub,2013-06-13 02:47:00,
2013-06-12 22:52:00,58.1,53.6,29.84,WNW,294,0.0,0.0,85,0.00,,,0.00,meteohub,2013-06-13 02:52:00,
2013-06-12 22:58:00,57.7,53.6,29.84,WNW,294,0.0,0.0,86,0.00,,,0.00,meteohub,2013-06-13 02:58:00,
2013-06-12 23:03:00,57.6,53.4,29.84,WNW,294,0.0,0.0,86,0.00,,,0.00,meteohub,2013-06-13 03:03:00,
2013-06-12 23:08:00,57.4,53.6,29.84,WNW,294,0.0,0.0,87,0.00,,,0.00,meteohub,2013-06-13 03:08:00,
2013-06-12 23:13:00,57.0,53.2,29.84,WNW,294,0.0,0.0,87,0.00,,,0.00,meteohub,2013-06-13 03:13:00,
2013-06-12 23:18:00,56.8,53.2,29.83,WNW,294,0.0,0.0,88,0.00,,,0.00,meteohub,2013-06-13 03:18:00,
2013-06-12 23:23:00,56.7,53.4,29.83,WNW,294,0.0,0.0,89,0.00,,,0.00,meteohub,2013-06-13 03:23:00,
2013-06-12 23:28:00,56.3,53.4,29.83,WNW,294,0.0,0.0,90,0.00,,,0.00,meteohub,2013-06-13 03:28:00,
2013-06-12 23:33:00,56.1,53.2,29.83,WNW,294,0.0,0.0,90,0.00,,,0.00,meteohub,2013-06-13 03:33:00,
2013-06-12 23:39:00,55.9,53.1,29.83,WNW,294,0.0,0.0,90,0.00,,,0.00,meteohub,2013-06-13 03:39:00,
2013-06-12 23:44:00,55.8,53.2,29.83,WNW,294,0.0,0.0,91,0.00,,,0.00,meteohub,2013-06-13 03:44:00,
2013-06-12 23:49:00,55.6,53.1,29.83,WNW,294,0.0,0.0,91,0.00,,,0.00,meteohub,2013-06-13 03:49:00,
2013-06-12 23:54:00,55.4,52.9,29.83,WNW,294,0.0,0.0,91,0.00,,,0.00,meteohub,2013-06-13 03:54:00,
2013-06-12 23:59:00,55.2,52.9,29.83,WNW,294,0.0,0.0,92,0.00,,,0.00,meteohub,2013-06-13 03:59:00,